createdAt,value
2023-09-03T00:01:40.538Z,30.58
2023-09-03T00:04:07.457Z,30.80
2023-09-03T00:06:34.480Z,31.03
2023-09-03T00:09:01.597Z,30.53
2023-09-03T00:11:28.527Z,29.20
2023-09-03T00:13:55.556Z,31.33
2023-09-03T00:16:22.531Z,31.60
2023-09-03T00:18:49.335Z,30.15
2023-09-03T00:21:16.191Z,29.23
2023-09-03T00:23:42.934Z,32.10
2023-09-03T00:26:17.302Z,30.37
2023-09-03T00:28:44.010Z,29.25
2023-09-03T00:31:11.203Z,29.63
2023-09-03T00:33:38.931Z,30.42
2023-09-03T00:38:33.789Z,30.60
2023-09-03T00:41:00.948Z,31.33
2023-09-03T00:43:28.664Z,30.85
2023-09-03T00:48:25.245Z,31.43
2023-09-03T00:50:53.326Z,29.95
2023-09-03T00:53:21.976Z,30.50
2023-09-03T00:55:49.053Z,30.85
2023-09-03T00:58:16.276Z,31.58
2023-09-03T01:00:43.319Z,32.22
2023-09-03T01:03:10.438Z,31.52
2023-09-03T01:05:37.399Z,31.60
2023-09-03T01:08:04.753Z,31.80
2023-09-03T01:10:39.268Z,31.42
2023-09-03T01:13:47.122Z,30.67
2023-09-03T01:16:22.932Z,30.50
2023-09-03T01:18:50.335Z,30.05
2023-09-03T01:21:50.793Z,33.10
2023-09-03T01:24:45.665Z,30.48
2023-09-03T01:27:26.067Z,31.23
2023-09-03T01:29:53.905Z,32.58
2023-09-03T01:32:22.717Z,32.58
2023-09-03T01:34:51.520Z,31.75
2023-09-03T01:37:18.525Z,32.08
2023-09-03T01:39:46.947Z,32.70
2023-09-03T01:42:13.757Z,31.63
2023-09-03T01:44:40.773Z,33.80
2023-09-03T01:47:37.726Z,34.87
2023-09-03T01:50:19.469Z,34.92
2023-09-03T01:53:03.918Z,33.92
2023-09-03T01:55:35.276Z,35.17
2023-09-03T01:58:06.668Z,35.10
2023-09-03T02:00:35.102Z,34.75
2023-09-03T02:03:02.951Z,36.60
2023-09-03T02:05:30.263Z,34.42
2023-09-03T02:07:57.259Z,35.65
2023-09-03T02:10:24.189Z,35.23
2023-09-03T02:12:51.272Z,34.10
2023-09-03T02:15:18.030Z,34.93
2023-09-03T02:17:44.828Z,37.10
2023-09-03T02:20:12.340Z,32.30
2023-09-03T02:22:39.252Z,34.50
2023-09-03T02:25:07.007Z,34.30
2023-09-03T02:30:00.505Z,35.00
2023-09-03T02:32:27.374Z,35.23
2023-09-03T02:34:54.252Z,34.37
2023-09-03T02:37:21.076Z,34.47
2023-09-03T02:39:48.093Z,35.27
2023-09-03T02:42:14.929Z,32.80
2023-09-03T02:44:41.756Z,30.60
2023-09-03T02:47:08.496Z,32.47
2023-09-03T02:49:35.924Z,30.57
2023-09-03T02:52:03.518Z,30.73
2023-09-03T02:54:30.368Z,31.38
2023-09-03T02:56:57.106Z,30.10
2023-09-03T02:59:23.910Z,32.08
2023-09-03T03:01:50.752Z,31.95
2023-09-03T03:04:17.688Z,31.40
2023-09-03T03:06:44.410Z,32.17
2023-09-03T03:09:11.350Z,33.38
2023-09-03T03:11:38.258Z,31.07
2023-09-03T03:14:05.383Z,32.57
2023-09-03T03:16:32.622Z,32.05
2023-09-03T03:18:59.611Z,29.65
2023-09-03T03:21:26.375Z,30.83
2023-09-03T03:23:53.601Z,29.98
2023-09-03T03:26:20.947Z,32.13
2023-09-03T03:28:48.259Z,30.55
2023-09-03T03:31:17.095Z,32.50
2023-09-03T03:33:45.468Z,31.88
2023-09-03T03:36:14.628Z,31.65
2023-09-03T03:38:41.673Z,32.00
2023-09-03T03:41:16.223Z,32.88
2023-09-03T03:43:49.509Z,31.25
2023-09-03T03:46:19.008Z,30.15
2023-09-03T03:48:47.171Z,30.73
2023-09-03T03:51:14.415Z,31.40
2023-09-03T03:53:42.224Z,30.40
2023-09-03T03:58:38.858Z,28.73
2023-09-03T04:01:19.773Z,30.33
2023-09-03T04:03:48.464Z,30.33
2023-09-03T04:06:15.990Z,28.70
2023-09-03T04:08:45.232Z,28.38
2023-09-03T04:11:18.173Z,29.77
2023-09-03T04:13:46.076Z,28.60
2023-09-03T04:16:18.015Z,28.35
2023-09-03T04:18:45.824Z,27.60
2023-09-03T04:21:13.094Z,28.98
2023-09-03T04:23:40.115Z,27.80
2023-09-03T04:26:07.301Z,28.47
2023-09-03T04:28:34.092Z,27.58
2023-09-03T04:31:02.269Z,26.75
2023-09-03T04:33:29.364Z,27.92
2023-09-03T04:35:58.051Z,28.37
2023-09-03T04:38:25.894Z,26.95
2023-09-03T04:40:53.071Z,26.90
2023-09-03T04:43:20.070Z,26.15
2023-09-03T04:45:50.582Z,24.97
2023-09-03T04:48:18.683Z,28.33
2023-09-03T04:50:46.000Z,25.73
2023-09-03T04:53:15.952Z,27.40
2023-09-03T04:55:43.289Z,27.42
2023-09-03T04:58:10.329Z,28.45
2023-09-03T05:00:37.800Z,28.98
2023-09-03T05:03:06.591Z,29.15
2023-09-03T05:05:43.529Z,28.83
2023-09-03T05:08:10.864Z,28.90
2023-09-03T05:10:41.168Z,29.67
2023-09-03T05:13:08.074Z,31.02
2023-09-03T05:15:35.488Z,31.00
2023-09-03T05:18:03.163Z,29.95
2023-09-03T05:22:56.828Z,29.13
2023-09-03T05:25:24.003Z,31.48
2023-09-03T05:27:50.872Z,30.80
2023-09-03T05:30:17.723Z,30.33
2023-09-03T05:32:44.669Z,29.97
2023-09-03T05:35:11.616Z,28.83
2023-09-03T05:37:38.490Z,30.90
2023-09-03T05:40:06.348Z,29.70
2023-09-03T05:42:33.275Z,30.17
2023-09-03T05:45:00.750Z,28.67
2023-09-03T05:47:27.779Z,27.42
2023-09-03T05:49:56.740Z,28.63
2023-09-03T05:52:23.973Z,28.73
2023-09-03T05:54:51.619Z,28.85
2023-09-03T05:57:22.250Z,29.73
2023-09-03T05:59:52.196Z,29.23
2023-09-03T06:02:19.313Z,28.65
2023-09-03T06:04:46.600Z,27.42
2023-09-03T06:07:14.367Z,29.13
2023-09-03T06:09:41.668Z,31.02
2023-09-03T06:12:08.831Z,32.72
2023-09-03T06:14:37.045Z,32.58
2023-09-03T06:17:05.792Z,31.02
2023-09-03T06:19:32.715Z,32.40
2023-09-03T06:21:59.672Z,32.17
2023-09-03T06:24:29.470Z,34.23
2023-09-03T06:26:57.818Z,32.35
2023-09-03T06:33:41.132Z,31.73
2023-09-03T06:36:07.998Z,29.92
2023-09-03T06:38:34.845Z,28.53
2023-09-03T06:41:01.846Z,29.97
2023-09-03T06:43:28.665Z,28.70
2023-09-03T06:45:55.450Z,29.00
2023-09-03T06:48:22.621Z,28.83
2023-09-03T06:50:49.977Z,28.70
2023-09-03T06:53:16.819Z,27.73
2023-09-03T06:55:47.143Z,30.27
2023-09-03T06:58:14.341Z,28.95
2023-09-03T07:00:41.156Z,27.27
2023-09-03T07:03:08.001Z,28.60
2023-09-03T07:05:34.797Z,27.77
2023-09-03T07:08:01.626Z,27.33
2023-09-03T07:10:28.573Z,27.23
2023-09-03T07:12:56.690Z,27.40
2023-09-03T07:15:23.589Z,27.05
2023-09-03T07:17:50.399Z,26.10
2023-09-03T07:20:17.486Z,26.00
2023-09-03T07:22:44.215Z,26.33
2023-09-03T07:25:11.425Z,26.45
2023-09-03T07:27:41.701Z,25.45
2023-09-03T07:30:10.120Z,26.10
2023-09-03T07:32:38.568Z,26.30
2023-09-03T07:35:07.889Z,53.25
2023-09-03T07:37:34.918Z,27.10
2023-09-03T07:40:01.714Z,26.02
2023-09-03T07:42:28.912Z,27.33
2023-09-03T07:44:55.674Z,27.05
2023-09-03T07:47:22.678Z,27.50
2023-09-03T07:49:49.989Z,26.67
2023-09-03T07:52:17.635Z,25.77
2023-09-03T07:57:11.842Z,27.27
2023-09-03T07:59:39.992Z,27.50
2023-09-03T08:02:07.301Z,27.58
2023-09-03T08:04:34.106Z,27.50
2023-09-03T08:07:00.932Z,28.13
2023-09-03T08:09:28.541Z,25.98
2023-09-03T08:11:55.285Z,25.92
2023-09-03T08:14:23.991Z,26.80
2023-09-03T08:16:50.993Z,27.30
2023-09-03T08:19:18.064Z,25.25
2023-09-03T08:21:46.186Z,26.40
2023-09-03T08:24:13.058Z,26.52
2023-09-03T08:26:40.040Z,24.80
2023-09-03T08:29:06.993Z,43.83
2023-09-03T08:31:34.209Z,31.90
2023-09-03T08:34:03.381Z,26.10
2023-09-03T08:36:30.204Z,32.03
2023-09-03T08:38:57.021Z,36.13
2023-09-03T08:41:25.101Z,23.20
2023-09-03T08:43:56.332Z,23.90
2023-09-03T08:46:26.943Z,24.08
2023-09-03T08:48:55.680Z,20.05
2023-09-03T08:51:22.850Z,31.60
2023-09-03T08:53:51.851Z,24.95
2023-09-03T08:56:19.226Z,21.40
2023-09-03T08:58:45.995Z,19.85
2023-09-03T09:01:15.132Z,21.77
2023-09-03T09:03:43.403Z,20.13
2023-09-03T09:06:11.041Z,19.10
2023-09-03T09:08:39.137Z,19.15
2023-09-03T09:11:12.125Z,20.60
2023-09-03T09:13:43.200Z,21.35
2023-09-03T09:16:10.264Z,20.30
2023-09-03T09:18:37.015Z,23.80
2023-09-03T09:21:04.236Z,18.60
2023-09-03T09:23:31.262Z,20.10
2023-09-03T09:26:00.308Z,17.05
2023-09-03T09:28:27.600Z,16.30
2023-09-03T09:30:56.079Z,18.48
2023-09-03T09:33:23.829Z,17.30
2023-09-03T09:35:51.267Z,18.33
2023-09-03T09:38:19.452Z,16.52
2023-09-03T09:40:46.610Z,15.73
2023-09-03T09:43:13.454Z,15.40
2023-09-03T09:45:52.569Z,13.80
2023-09-03T09:48:19.544Z,13.57
2023-09-03T09:50:48.476Z,13.57
2023-09-03T09:53:28.464Z,12.05
2023-09-03T09:56:09.349Z,11.13
2023-09-03T09:58:40.860Z,11.70
2023-09-03T10:01:09.948Z,10.50
2023-09-03T10:03:48.055Z,10.02
2023-09-03T10:06:19.660Z,11.10
2023-09-03T10:08:51.011Z,10.75
2023-09-03T10:11:19.599Z,10.18
2023-09-03T10:13:48.790Z,8.00
2023-09-03T10:16:18.719Z,9.32
2023-09-03T10:18:50.209Z,9.55
2023-09-03T10:21:33.848Z,8.40
2023-09-03T10:24:14.642Z,8.02
2023-09-03T10:26:52.373Z,7.32
2023-09-03T10:29:22.914Z,7.05
2023-09-03T10:31:51.842Z,7.57
2023-09-03T10:34:19.334Z,7.50
2023-09-03T10:37:07.699Z,7.32
2023-09-03T10:39:39.754Z,7.30
2023-09-03T10:42:25.183Z,7.03
2023-09-03T10:44:53.621Z,6.05
2023-09-03T10:47:20.769Z,4.72
2023-09-03T10:49:53.343Z,4.32
2023-09-03T10:52:33.063Z,3.85
2023-09-03T10:55:20.554Z,3.95
2023-09-03T10:57:49.229Z,2.83
2023-09-03T11:00:22.836Z,3.50
2023-09-03T11:02:51.146Z,2.30
2023-09-03T11:05:27.885Z,2.95
2023-09-03T11:08:32.763Z,2.20
2023-09-03T11:11:00.052Z,2.25
2023-09-03T11:16:10.071Z,3.30
2023-09-03T11:18:38.019Z,3.80
2023-09-03T11:21:05.458Z,2.60
2023-09-03T11:23:36.129Z,3.08
2023-09-03T11:26:04.955Z,2.50
2023-09-03T11:28:37.802Z,2.50
2023-09-03T11:31:05.196Z,2.20
2023-09-03T11:33:32.433Z,2.65
2023-09-03T11:38:28.776Z,2.35
2023-09-03T11:41:00.443Z,2.33
2023-09-03T11:43:30.377Z,2.90
2023-09-03T11:45:57.794Z,2.03
2023-09-03T11:48:29.067Z,2.28
2023-09-03T11:51:05.424Z,2.30
2023-09-03T11:53:44.476Z,3.28
2023-09-03T11:56:15.107Z,2.20
2023-09-03T11:58:43.243Z,6.65
2023-09-03T12:01:10.922Z,2.15
2023-09-03T12:03:40.812Z,2.60
2023-09-03T12:06:08.061Z,2.53
2023-09-03T12:08:35.419Z,2.30
2023-09-03T12:11:02.308Z,2.72
2023-09-03T12:13:34.015Z,2.42
2023-09-03T12:16:07.941Z,3.17
2023-09-03T12:18:35.990Z,3.88
2023-09-03T12:21:04.061Z,5.35
2023-09-03T12:23:30.946Z,3.20
2023-09-03T12:25:57.739Z,2.58
2023-09-03T12:28:36.262Z,3.53
2023-09-03T12:31:04.897Z,3.10
2023-09-03T12:33:34.581Z,3.53
2023-09-03T12:36:10.104Z,3.05
2023-09-03T12:38:49.369Z,3.20
2023-09-03T12:41:16.422Z,3.03
2023-09-03T12:46:12.611Z,4.85
2023-09-03T12:56:00.669Z,3.38
2023-09-03T12:58:27.395Z,3.33
2023-09-03T13:00:54.729Z,3.28
2023-09-03T13:03:22.021Z,7.28
2023-09-03T13:05:49.104Z,2.97
2023-09-03T13:08:16.898Z,2.83
2023-09-03T13:10:43.945Z,2.97
2023-09-03T13:13:13.324Z,3.38
2023-09-03T13:15:41.002Z,3.80
2023-09-03T13:18:08.114Z,3.28
2023-09-03T13:23:02.606Z,3.53
2023-09-03T13:25:34.931Z,3.28
2023-09-03T13:28:02.672Z,3.90
2023-09-03T13:32:56.359Z,3.70
2023-09-03T13:35:23.703Z,3.83
2023-09-03T13:37:50.458Z,3.33
2023-09-03T13:40:17.358Z,3.13
2023-09-03T13:42:44.119Z,3.85
2023-09-03T13:45:11.401Z,3.58
2023-09-03T13:47:38.325Z,3.45
2023-09-03T13:50:07.268Z,3.25
2023-09-03T13:52:34.654Z,3.05
2023-09-03T13:55:01.499Z,3.33
2023-09-03T13:57:28.533Z,3.13
2023-09-03T13:59:57.925Z,2.90
2023-09-03T14:02:26.916Z,2.63
2023-09-03T14:04:53.725Z,2.80
2023-09-03T14:07:23.346Z,2.60
2023-09-03T14:09:53.632Z,3.15
2023-09-03T14:12:20.548Z,2.85
2023-09-03T14:14:47.366Z,3.10
2023-09-03T14:17:14.131Z,2.92
2023-09-03T14:19:40.935Z,3.05
2023-09-03T14:22:07.783Z,3.38
2023-09-03T14:24:36.407Z,3.30
2023-09-03T14:27:05.904Z,2.75
2023-09-03T14:29:33.688Z,2.50
2023-09-03T14:32:01.941Z,3.15
2023-09-03T14:34:28.804Z,3.30
2023-09-03T14:36:55.734Z,3.38
2023-09-03T14:39:23.739Z,3.45
2023-09-03T14:41:51.007Z,3.28
2023-09-03T14:49:12.539Z,5.00
2023-09-03T14:51:39.529Z,2.72
2023-09-03T14:54:06.599Z,2.95
2023-09-03T14:59:03.818Z,2.97
2023-09-03T15:01:30.782Z,2.75
2023-09-03T15:08:52.027Z,3.08
2023-09-03T15:11:19.588Z,2.53
2023-09-03T15:13:54.095Z,2.85
2023-09-03T15:16:21.260Z,5.35
2023-09-03T15:18:48.129Z,3.72
2023-09-03T15:21:18.059Z,2.53
2023-09-03T15:23:44.828Z,2.40
2023-09-03T15:26:11.705Z,2.47
2023-09-03T15:28:38.650Z,3.00
2023-09-03T15:33:32.290Z,5.35
2023-09-03T15:35:59.137Z,3.47
2023-09-03T15:38:25.850Z,4.40
2023-09-03T15:40:52.847Z,3.47
2023-09-03T15:45:52.515Z,2.80
2023-09-03T15:48:20.430Z,2.88
2023-09-03T15:50:47.903Z,3.17
2023-09-03T15:53:15.090Z,3.25
2023-09-03T15:55:42.388Z,3.15
2023-09-03T15:58:10.759Z,3.10
2023-09-03T16:00:39.800Z,2.80
2023-09-03T16:03:08.321Z,3.42
2023-09-03T16:05:35.459Z,3.25
2023-09-03T16:08:02.917Z,3.40
2023-09-03T16:10:29.841Z,3.28
2023-09-03T16:12:59.679Z,3.08
2023-09-03T16:15:27.296Z,3.40
2023-09-03T16:17:55.493Z,3.53
2023-09-03T16:20:23.186Z,2.92
2023-09-03T16:22:50.273Z,3.13
2023-09-03T16:27:44.147Z,4.05
2023-09-03T16:30:11.529Z,4.63
2023-09-03T16:32:38.763Z,4.03
2023-09-03T16:35:06.036Z,3.63
2023-09-03T16:42:26.730Z,3.25
2023-09-03T16:44:57.282Z,3.20
2023-09-03T16:47:26.359Z,2.90
2023-09-03T16:49:53.841Z,3.35
2023-09-03T16:52:20.992Z,3.40
2023-09-03T16:57:14.550Z,3.78
2023-09-03T16:59:42.162Z,4.43
2023-09-03T17:02:13.486Z,4.68
2023-09-03T17:04:42.781Z,4.47
2023-09-03T17:07:10.785Z,3.70
2023-09-03T17:09:37.970Z,3.92
2023-09-03T17:12:05.414Z,4.15
2023-09-03T17:14:32.509Z,3.65
2023-09-03T17:16:59.431Z,5.65
2023-09-03T17:19:26.682Z,3.92
2023-09-03T17:21:53.414Z,4.20
2023-09-03T17:24:20.216Z,3.60
2023-09-03T17:26:47.393Z,3.72
2023-09-03T17:29:14.356Z,3.53
2023-09-03T17:31:41.173Z,6.18
2023-09-03T17:34:08.373Z,3.70
2023-09-03T17:36:35.908Z,4.18
2023-09-03T17:39:04.384Z,5.18
2023-09-03T17:41:31.734Z,3.97
2023-09-03T17:46:25.260Z,7.28
2023-09-03T17:48:52.014Z,3.85
2023-09-03T17:51:18.922Z,3.83
2023-09-03T17:53:45.824Z,4.03
2023-09-03T17:58:40.316Z,4.25
2023-09-03T18:01:07.170Z,4.10
2023-09-03T18:03:34.166Z,4.18
2023-09-03T18:06:07.306Z,6.63
2023-09-03T18:08:34.075Z,4.28
2023-09-03T18:11:00.838Z,3.90
2023-09-03T18:13:27.648Z,5.43
2023-09-03T18:15:58.032Z,4.60
2023-09-03T18:18:25.155Z,4.85
2023-09-03T18:20:52.081Z,4.97
2023-09-03T18:23:18.850Z,4.63
2023-09-03T18:25:45.813Z,5.38
2023-09-03T18:28:12.850Z,6.30
2023-09-03T18:30:39.766Z,11.25
2023-09-03T18:33:06.760Z,5.37
2023-09-03T18:35:34.943Z,5.18
2023-09-03T18:38:02.000Z,6.47
2023-09-03T18:40:30.991Z,5.07
2023-09-03T18:43:00.825Z,4.40
2023-09-03T18:45:27.626Z,4.55
2023-09-03T18:47:54.444Z,4.50
2023-09-03T18:50:21.282Z,4.90
2023-09-03T18:52:48.217Z,4.03
2023-09-03T18:55:15.031Z,4.97
2023-09-03T18:57:41.899Z,5.27
2023-09-03T19:00:11.369Z,7.30
2023-09-03T19:02:38.268Z,4.88
2023-09-03T19:05:05.643Z,7.15
2023-09-03T19:07:33.001Z,4.55
2023-09-03T19:10:00.342Z,4.75
2023-09-03T19:12:27.203Z,4.57
2023-09-03T19:14:54.014Z,4.50
2023-09-03T19:17:20.738Z,4.80
2023-09-03T19:19:47.537Z,4.47
2023-09-03T19:22:16.922Z,4.27
2023-09-03T19:24:43.746Z,4.90
2023-09-03T19:27:12.476Z,4.20
2023-09-03T19:29:39.468Z,4.30
2023-09-03T19:32:06.432Z,4.27
2023-09-03T19:34:33.176Z,5.05
2023-09-03T19:36:59.923Z,4.13
2023-09-03T19:39:26.735Z,4.53
2023-09-03T19:41:55.282Z,4.30
2023-09-03T19:44:22.353Z,5.47
2023-09-03T19:46:51.276Z,4.13
2023-09-03T19:49:18.338Z,4.18
2023-09-03T19:51:45.141Z,5.10
2023-09-03T19:54:13.738Z,4.13
2023-09-03T19:56:40.758Z,3.65
2023-09-03T19:59:07.519Z,3.55
2023-09-03T20:01:34.367Z,3.73
2023-09-03T20:04:01.342Z,3.60
2023-09-03T20:06:28.361Z,3.92
2023-09-03T20:08:55.121Z,8.20
2023-09-03T20:11:22.228Z,4.63
2023-09-03T20:13:49.059Z,6.78
2023-09-03T20:16:15.792Z,3.87
2023-09-03T20:18:44.101Z,3.90
2023-09-03T20:21:13.629Z,4.10
2023-09-03T20:23:40.478Z,3.88
2023-09-03T20:26:08.763Z,3.50
2023-09-03T20:28:46.137Z,3.92
2023-09-03T20:31:15.951Z,4.20
2023-09-03T20:33:43.506Z,3.58
2023-09-03T20:36:10.673Z,3.70
2023-09-03T20:38:37.616Z,3.42
2023-09-03T20:41:05.415Z,3.23
2023-09-03T20:43:32.416Z,3.22
2023-09-03T20:46:00.282Z,3.65
2023-09-03T20:48:28.104Z,3.80
2023-09-03T20:53:25.771Z,2.92
2023-09-03T20:55:54.518Z,3.53
2023-09-03T20:58:22.839Z,2.85
2023-09-03T21:00:50.219Z,3.30
2023-09-03T21:03:17.784Z,3.20
2023-09-03T21:05:50.849Z,3.15
2023-09-03T21:08:19.045Z,3.17
2023-09-03T21:10:55.608Z,3.00
2023-09-03T21:13:22.533Z,3.07
2023-09-03T21:15:50.460Z,3.93
2023-09-03T21:18:19.653Z,3.22
2023-09-03T21:20:47.033Z,3.63
2023-09-03T21:23:14.273Z,3.63
2023-09-03T21:25:42.438Z,3.35
2023-09-03T21:28:09.286Z,3.42
2023-09-03T21:30:36.171Z,3.10
2023-09-03T21:33:03.097Z,4.00
2023-09-03T21:35:29.899Z,3.10
2023-09-03T21:37:56.794Z,3.00
2023-09-03T21:40:23.653Z,3.20
2023-09-03T21:42:51.488Z,3.77
2023-09-03T21:45:18.546Z,3.30
2023-09-03T21:47:45.435Z,3.15
2023-09-03T21:50:12.306Z,3.87
2023-09-03T21:52:39.193Z,3.67
2023-09-03T21:55:06.551Z,3.67
2023-09-03T21:57:34.558Z,3.55
2023-09-03T22:00:02.014Z,3.60
2023-09-03T22:02:28.905Z,3.70
2023-09-03T22:04:59.670Z,3.97
2023-09-03T22:07:27.156Z,4.07
2023-09-03T22:09:54.249Z,4.38
2023-09-03T22:12:21.082Z,4.17
2023-09-03T22:14:48.015Z,3.97
2023-09-03T22:17:15.286Z,4.20
2023-09-03T22:19:42.115Z,5.28
2023-09-03T22:22:08.836Z,4.13
2023-09-03T22:24:35.756Z,4.73
2023-09-03T22:27:02.665Z,3.87
2023-09-03T22:29:29.878Z,3.67
2023-09-03T22:31:56.599Z,4.67
2023-09-03T22:34:24.971Z,4.53
2023-09-03T22:36:51.804Z,4.70
2023-09-03T22:39:18.781Z,4.30
2023-09-03T22:41:45.734Z,4.55
2023-09-03T22:44:12.577Z,5.47
2023-09-03T22:46:39.540Z,5.10
2023-09-03T22:49:06.880Z,5.20
2023-09-03T22:51:33.722Z,4.90
2023-09-03T22:54:00.568Z,4.70
2023-09-03T22:56:27.407Z,4.70
2023-09-03T22:58:54.190Z,5.00
2023-09-03T23:01:21.037Z,4.90
2023-09-03T23:03:48.023Z,5.13
2023-09-03T23:06:14.961Z,4.73
2023-09-03T23:08:41.765Z,5.77
2023-09-03T23:11:08.450Z,5.10
2023-09-03T23:13:35.252Z,5.43
2023-09-03T23:16:02.012Z,4.20
2023-09-03T23:18:29.673Z,4.13
2023-09-03T23:20:57.007Z,5.03
2023-09-03T23:23:23.799Z,4.83
2023-09-03T23:25:51.241Z,5.32
2023-09-03T23:28:18.172Z,4.60
2023-09-03T23:30:45.155Z,5.30
2023-09-03T23:33:12.068Z,4.80
2023-09-03T23:35:38.902Z,4.73
2023-09-03T23:38:05.744Z,4.50
2023-09-03T23:40:32.588Z,4.67
2023-09-03T23:42:59.387Z,4.50
2023-09-03T23:45:27.633Z,4.68
2023-09-03T23:47:54.474Z,4.60
2023-09-03T23:50:21.426Z,5.03
2023-09-03T23:52:48.331Z,4.80
2023-09-03T23:55:15.171Z,4.57
